sensor_id;sensor_type;location;lat;lon;timestamp;pressure;altitude;pressure_sealevel;temperature
15453;BMP280;7827;53.594;9.938;2024-02-21T14:26:34;32791.69;;;-135.29
15453;BMP280;7827;53.594;9.938;2024-02-21T14:29:03;32859.50;;;-135.29
15453;BMP280;7827;53.594;9.938;2024-02-21T14:31:32;33002.81;;;-135.29
15453;BMP280;7827;53.594;9.938;2024-02-21T14:34:01;32874.97;;;-135.29
15453;BMP280;7827;53.594;9.938;2024-02-21T14:36:29;32745.22;;;-135.29
15453;BMP280;7827;53.594;9.938;2024-02-21T14:38:58;33161.66;;;-135.29
15453;BMP280;7827;53.594;9.938;2024-02-21T14:41:27;33396.03;;;-135.29
15453;BMP280;7827;53.594;9.938;2024-02-21T14:43:57;33651.75;;;-135.29
15453;BMP280;7827;53.594;9.938;2024-02-21T14:46:30;33781.56;;;-135.29
15453;BMP280;7827;53.594;9.938;2024-02-21T14:48:59;33781.56;;;-135.29
15453;BMP280;7827;53.594;9.938;2024-02-21T14:51:28;33769.94;;;-135.29
15453;BMP280;7827;53.594;9.938;2024-02-21T14:53:57;33959.81;;;-135.29
15453;BMP280;7827;53.594;9.938;2024-02-21T14:56:26;33936.56;;;-135.29
15453;BMP280;7827;53.594;9.938;2024-02-21T14:58:53;33975.31;;;-135.29
15453;BMP280;7827;53.594;9.938;2024-02-21T15:01:30;33913.31;;;-135.29
15453;BMP280;7827;53.594;9.938;2024-02-21T15:03:59;34025.69;;;-135.29
15453;BMP280;7827;53.594;9.938;2024-02-21T15:06:27;34136.13;;;-135.29
15453;BMP280;7827;53.594;9.938;2024-02-21T15:08:56;34107.06;;;-135.29
15453;BMP280;7827;53.594;9.938;2024-02-21T15:11:24;33971.44;;;-135.29
15453;BMP280;7827;53.594;9.938;2024-02-21T15:13:53;34062.50;;;-135.29
15453;BMP280;7827;53.594;9.938;2024-02-21T15:16:22;34023.75;;;-135.29
15453;BMP280;7827;53.594;9.938;2024-02-21T15:18:52;34037.31;;;-135.29
15453;BMP280;7827;53.594;9.938;2024-02-21T15:21:20;34132.25;;;-135.29
15453;BMP280;7827;53.594;9.938;2024-02-21T15:23:48;33998.56;;;-135.29
15453;BMP280;7827;53.594;9.938;2024-02-21T15:26:17;34145.81;;;-135.29
15453;BMP280;7827;53.594;9.938;2024-02-21T15:28:45;34089.63;;;-135.29
15453;BMP280;7827;53.594;9.938;2024-02-21T15:31:20;34110.94;;;-135.29
15453;BMP280;7827;53.594;9.938;2024-02-21T15:33:52;34295.03;;;-135.29
15453;BMP280;7827;53.594;9.938;2024-02-21T15:36:21;34260.13;;;-135.29
15453;BMP280;7827;53.594;9.938;2024-02-21T15:38:49;34048.94;;;-135.29
15453;BMP280;7827;53.594;9.938;2024-02-21T15:41:18;34025.69;;;-135.29
15453;BMP280;7827;53.594;9.938;2024-02-21T15:43:48;34161.31;;;-135.29
15453;BMP280;7827;53.594;9.938;2024-02-21T15:46:17;34056.69;;;-135.29
15453;BMP280;7827;53.594;9.938;2024-02-21T15:48:46;34114.81;;;-135.29
15453;BMP280;7827;53.594;9.938;2024-02-21T15:51:20;34091.56;;;-135.29
15453;BMP280;7827;53.594;9.938;2024-02-21T15:53:49;34097.38;;;-135.29
15453;BMP280;7827;53.594;9.938;2024-02-21T15:56:17;34132.25;;;-135.29
15453;BMP280;7827;53.594;9.938;2024-02-21T15:58:46;34227.19;;;-135.29
15453;BMP280;7827;53.594;9.938;2024-02-21T16:01:15;34124.50;;;-135.29
15453;BMP280;7827;53.594;9.938;2024-02-21T16:03:43;34120.63;;;-135.29
15453;BMP280;7827;53.594;9.938;2024-02-21T16:06:12;34184.56;;;-135.29
15453;BMP280;7827;53.594;9.938;2024-02-21T16:08:42;34161.31;;;-135.29
15453;BMP280;7827;53.594;9.938;2024-02-21T16:11:14;34157.44;;;-135.29
15453;BMP280;7827;53.594;9.938;2024-02-21T16:13:44;34215.56;;;-135.29
15453;BMP280;7827;53.594;9.938;2024-02-21T16:16:15;34227.19;;;-135.29
15453;BMP280;7827;53.594;9.938;2024-02-21T16:18:44;34157.44;;;-135.29
15453;BMP280;7827;53.594;9.938;2024-02-21T16:21:13;34141.94;;;-135.29
15453;BMP280;7827;53.594;9.938;2024-02-21T16:23:43;34192.31;;;-135.29
15453;BMP280;7827;53.594;9.938;2024-02-21T16:26:11;34343.47;;;-135.29
15453;BMP280;7827;53.594;9.938;2024-02-21T16:28:41;34300.84;;;-135.29
15453;BMP280;7827;53.594;9.938;2024-02-21T16:31:11;34300.84;;;-135.29
15453;BMP280;7827;53.594;9.938;2024-02-21T16:33:40;34256.25;;;-135.29
15453;BMP280;7827;53.594;9.938;2024-02-21T16:36:08;34281.44;;;-135.29
15453;BMP280;7827;53.594;9.938;2024-02-21T16:38:39;34207.81;;;-135.29
15453;BMP280;7827;53.594;9.938;2024-02-21T16:41:10;34058.63;;;-135.29
15453;BMP280;7827;53.594;9.938;2024-02-21T16:43:38;34176.81;;;-135.29
15453;BMP280;7827;53.594;9.938;2024-02-21T16:46:06;34244.63;;;-135.29
15453;BMP280;7827;53.594;9.938;2024-02-21T16:48:35;34277.56;;;-135.29
